Time;durP1;ratioP1;P1;durP2;ratioP2;P2;SDS_P1;SDS_P2;PMS_P1;PMS_P2;Temp;Humidity;BMP_temperature;BMP_pressure;BME280_temperature;BME280_humidity;BME280_pressure;Samples;Min_cycle;Max_cycle;Signal;HPM_P1;HPM_P2
2023/09/27 00:01:42;;;;;;;4.05;2.28;;;;;;;17.52;91.71;101316.44;5055980;28;20471;-58
2023/09/27 00:04:07;;;;;;;2.60;2.25;;;;;;;17.63;91.73;101305.59;5053122;28;20156;-60
2023/09/27 00:06:33;;;;;;;5.47;2.72;;;;;;;17.71;90.95;101307.91;5055912;28;20089;-60
2023/09/27 00:08:58;;;;;;;3.70;2.15;;;;;;;17.56;91.36;101291.94;5054022;28;20041;-59
2023/09/27 00:11:24;;;;;;;3.65;2.45;;;;;;;17.46;91.64;101279.81;5055441;28;20359;-58
2023/09/27 00:13:49;;;;;;;3.53;2.75;;;;;;;17.48;91.73;101291.13;5052736;28;20033;-60
2023/09/27 00:16:15;;;;;;;3.35;2.50;;;;;;;17.49;92.09;101283.75;5059082;28;20020;-60
2023/09/27 00:18:40;;;;;;;4.47;2.60;;;;;;;17.47;91.46;101283.31;5051865;28;20694;-59
2023/09/27 00:21:06;;;;;;;3.30;2.25;;;;;;;17.45;91.30;101282.94;5050528;28;20558;-60
2023/09/27 00:23:31;;;;;;;4.13;2.33;;;;;;;17.43;91.10;101291.50;5051905;28;20166;-60
2023/09/27 00:25:57;;;;;;;4.13;2.65;;;;;;;17.41;91.04;101291.09;5045692;28;20071;-57
2023/09/27 00:28:22;;;;;;;3.67;2.53;;;;;;;17.32;91.80;101292.63;5054098;28;20037;-58
2023/09/27 00:30:51;;;;;;;5.57;2.80;;;;;;;17.44;91.71;101301.22;5049145;28;20163;-59
2023/09/27 00:33:16;;;;;;;3.70;2.42;;;;;;;17.41;91.01;101293.81;5053429;28;20127;-60
2023/09/27 00:35:47;;;;;;;3.08;2.25;;;;;;;17.30;91.61;101295.75;5033263;28;20227;-59
2023/09/27 00:38:12;;;;;;;3.67;2.35;;;;;;;17.30;92.27;101305.84;5055649;28;20024;-57
2023/09/27 00:40:44;;;;;;;4.47;2.55;;;;;;;17.29;91.78;101291.44;5050733;28;20032;-58
2023/09/27 00:43:10;;;;;;;4.60;2.72;;;;;;;17.22;92.30;101288.72;5047920;28;20122;-55
2023/09/27 00:45:35;;;;;;;4.03;2.50;;;;;;;17.22;92.43;101294.16;5053180;28;20494;-56
2023/09/27 00:48:01;;;;;;;4.30;2.83;;;;;;;17.26;92.22;101305.06;5046989;28;20542;-58
2023/09/27 00:50:26;;;;;;;3.20;2.53;;;;;;;17.19;92.13;101308.53;5051635;28;20012;-60
2023/09/27 00:52:52;;;;;;;4.65;2.78;;;;;;;17.11;92.67;101312.41;5051589;28;20395;-60
2023/09/27 00:55:22;;;;;;;3.90;2.72;;;;;;;17.17;92.62;101305.41;5054544;28;20044;-60
2023/09/27 00:57:50;;;;;;;4.70;3.17;;;;;;;17.10;92.48;101289.84;5054976;28;20033;-60
2023/09/27 01:00:16;;;;;;;3.50;2.40;;;;;;;17.03;92.02;101283.59;5048177;28;20479;-60
2023/09/27 01:02:42;;;;;;;5.07;2.85;;;;;;;17.02;92.77;101295.63;5048690;28;20029;-59
2023/09/27 01:05:10;;;;;;;5.25;2.65;;;;;;;17.08;92.78;101291.38;5052185;28;20024;-60
2023/09/27 01:07:38;;;;;;;4.25;2.70;;;;;;;17.12;92.63;101278.56;5049274;28;20029;-60
2023/09/27 01:10:06;;;;;;;4.10;2.40;;;;;;;17.08;92.57;101288.66;5048701;28;20108;-60
2023/09/27 01:12:32;;;;;;;5.05;3.00;;;;;;;17.04;92.77;101296.00;5056880;28;20520;-59
2023/09/27 01:14:59;;;;;;;4.60;2.83;;;;;;;17.12;92.41;101294.88;5054151;28;20391;-57
2023/09/27 01:17:24;;;;;;;3.80;2.65;;;;;;;17.22;92.07;101290.66;5051374;28;20028;-58
2023/09/27 01:19:50;;;;;;;4.15;2.88;;;;;;;17.27;91.63;101288.31;5047244;28;20028;-59
2023/09/27 01:22:15;;;;;;;3.78;2.45;;;;;;;17.26;91.41;101283.28;5053421;28;20051;-60
2023/09/27 01:24:44;;;;;;;3.42;2.55;;;;;;;17.29;91.01;101280.56;5047975;28;20090;-60
2023/09/27 01:27:09;;;;;;;6.78;2.55;;;;;;;17.24;91.36;101282.88;5054114;28;20033;-60
2023/09/27 01:29:35;;;;;;;4.57;2.75;;;;;;;17.20;91.46;101280.16;5053840;28;20392;-60
2023/09/27 01:32:00;;;;;;;4.55;2.88;;;;;;;17.11;91.46;101280.50;5052424;28;20036;-60
2023/09/27 01:34:26;;;;;;;4.40;2.88;;;;;;;17.12;91.82;101278.56;5056231;28;20020;-59
2023/09/27 01:36:53;;;;;;;5.15;3.08;;;;;;;17.11;91.91;101280.50;5051079;28;20037;-60
2023/09/27 01:39:19;;;;;;;5.22;2.97;;;;;;;17.12;91.75;101284.00;5060581;28;20052;-60
2023/09/27 01:41:44;;;;;;;5.38;2.90;;;;;;;17.08;91.49;101284.00;5049137;28;20041;-59
2023/09/27 01:44:10;;;;;;;5.45;3.03;;;;;;;17.11;91.73;101274.28;5051289;28;20028;-60
2023/09/27 01:46:35;;;;;;;5.50;2.67;;;;;;;17.08;91.40;101275.03;5055855;28;20029;-60
2023/09/27 01:49:01;;;;;;;6.55;2.85;;;;;;;17.00;91.42;101276.16;5053431;28;20032;-60
2023/09/27 01:51:31;;;;;;;8.85;3.03;;;;;;;16.91;91.71;101271.09;5052879;28;20033;-60
2023/09/27 01:53:56;;;;;;;7.43;2.95;;;;;;;16.88;92.19;101276.50;5054394;28;20037;-60
2023/09/27 01:56:22;;;;;;;3.97;3.13;;;;;;;16.87;92.51;101258.63;5055153;28;20034;-58
2023/09/27 01:58:47;;;;;;;5.05;3.22;;;;;;;16.82;92.35;101261.72;5054045;28;20033;-60
2023/09/27 02:01:13;;;;;;;5.03;3.47;;;;;;;16.84;93.21;101253.97;5052505;28;20020;-60
2023/09/27 02:03:42;;;;;;;3.63;2.78;;;;;;;16.88;92.82;101265.63;5056908;28;20119;-60
2023/09/27 02:06:08;;;;;;;5.05;3.42;;;;;;;16.91;92.72;101268.38;5052528;28;20071;-60
2023/09/27 02:08:33;;;;;;;3.47;2.55;;;;;;;16.90;92.33;101274.97;5045930;28;20053;-60
2023/09/27 02:10:59;;;;;;;4.70;3.17;;;;;;;16.81;92.25;101271.81;5050426;28;20037;-58
2023/09/27 02:13:24;;;;;;;4.47;2.90;;;;;;;16.80;92.59;101277.66;5052857;28;20094;-59
2023/09/27 02:15:50;;;;;;;4.85;3.03;;;;;;;16.83;92.28;101279.59;5055571;28;20136;-61
2023/09/27 02:18:15;;;;;;;12.00;3.28;;;;;;;16.74;92.64;101271.00;5052445;28;20067;-59
2023/09/27 02:20:41;;;;;;;5.05;2.70;;;;;;;16.68;92.57;101269.81;5047345;28;20063;-56
2023/09/27 02:23:06;;;;;;;6.40;3.50;;;;;;;16.63;92.72;101275.59;5056916;28;20083;-55
2023/09/27 02:25:32;;;;;;;4.45;2.83;;;;;;;16.54;93.69;101267.78;5051989;28;20076;-61
2023/09/27 02:27:57;;;;;;;4.70;3.30;;;;;;;16.55;93.79;101282.94;5050817;28;20072;-54
2023/09/27 02:30:23;;;;;;;5.40;3.25;;;;;;;16.62;93.19;101283.00;5048742;28;20021;-54
2023/09/27 02:32:48;;;;;;;5.45;3.15;;;;;;;16.60;93.45;101292.69;5055843;28;20041;-63
2023/09/27 02:35:14;;;;;;;4.78;3.45;;;;;;;16.52;93.16;101291.06;5047067;28;20029;-55
2023/09/27 02:37:41;;;;;;;6.15;3.78;;;;;;;16.46;93.68;101298.00;5045133;28;20039;-59
2023/09/27 02:40:11;;;;;;;4.43;2.90;;;;;;;16.45;93.08;101301.88;5047434;28;20116;-54
2023/09/27 02:42:44;;;;;;;6.35;3.20;;;;;;;16.42;93.01;101318.94;5046138;28;20025;-61
2023/09/27 02:45:11;;;;;;;5.75;3.38;;;;;;;16.45;92.74;101307.31;5036364;28;20032;-53
2023/09/27 02:47:39;;;;;;;4.43;2.90;;;;;;;16.42;92.43;101316.22;5030808;28;20033;-59
2023/09/27 02:50:09;;;;;;;8.32;3.30;;;;;;;16.37;92.09;101313.84;5039845;28;20155;-62
2023/09/27 02:52:35;;;;;;;4.50;2.90;;;;;;;16.27;92.63;101307.97;5060156;28;20503;-62
2023/09/27 02:55:01;;;;;;;4.00;2.83;;;;;;;16.25;93.05;101304.84;5045805;28;20056;-59
2023/09/27 02:57:26;;;;;;;5.18;3.05;;;;;;;16.28;93.01;101297.84;5049873;28;20061;-56
2023/09/27 02:59:52;;;;;;;4.60;3.05;;;;;;;16.23;92.50;101304.44;5053831;28;20074;-57
2023/09/27 03:02:20;;;;;;;5.93;3.05;;;;;;;16.15;93.36;101302.81;5055661;28;20032;-62
2023/09/27 03:04:47;;;;;;;6.80;3.72;;;;;;;16.16;93.76;101307.09;5044549;28;20021;-62
2023/09/27 03:07:14;;;;;;;5.70;3.55;;;;;;;16.03;94.31;101311.25;5048824;28;20028;-57
2023/09/27 03:09:40;;;;;;;6.40;3.72;;;;;;;16.06;94.36;101307.03;5053940;28;20369;-58
2023/09/27 03:12:06;;;;;;;5.50;2.75;;;;;;;16.03;94.56;101316.69;5064024;28;20029;-53
2023/09/27 03:14:32;;;;;;;6.53;3.25;;;;;;;15.99;94.28;101331.38;5056894;28;20031;-59
2023/09/27 03:16:59;;;;;;;5.75;3.60;;;;;;;16.00;94.04;101325.59;5051637;28;20029;-54
2023/09/27 03:19:24;;;;;;;4.20;3.13;;;;;;;16.00;93.73;101328.31;5048491;28;20079;-58
2023/09/27 03:21:51;;;;;;;5.45;3.20;;;;;;;15.96;93.73;101324.78;5051555;28;20464;-53
2023/09/27 03:24:17;;;;;;;6.45;3.17;;;;;;;15.88;93.47;101317.72;5029106;28;20454;-55
2023/09/27 03:26:43;;;;;;;4.53;2.90;;;;;;;15.82;93.99;101319.22;5045909;28;20079;-59
2023/09/27 03:29:08;;;;;;;6.53;3.15;;;;;;;15.91;93.65;101316.97;5051872;28;20078;-61
2023/09/27 03:31:34;;;;;;;5.07;3.20;;;;;;;16.00;93.08;101320.16;5057735;28;20020;-51
2023/09/27 03:34:00;;;;;;;4.43;3.25;;;;;;;15.94;93.03;101321.66;5050367;28;20624;-51
2023/09/27 03:36:25;;;;;;;4.05;2.85;;;;;;;15.89;92.78;101316.56;5051090;28;20107;-56
2023/09/27 03:38:51;;;;;;;4.95;3.20;;;;;;;15.88;93.47;101331.31;5055579;28;20033;-59
2023/09/27 03:41:16;;;;;;;5.18;3.38;;;;;;;15.84;93.47;101332.41;5055045;28;20055;-56
2023/09/27 03:43:42;;;;;;;5.30;3.28;;;;;;;15.87;93.09;101332.44;5052216;28;20041;-52
2023/09/27 03:46:08;;;;;;;6.25;3.30;;;;;;;15.89;92.86;101324.69;5051093;28;20048;-58
2023/09/27 03:48:34;;;;;;;4.75;2.65;;;;;;;15.84;92.41;101326.97;5048846;28;20433;-59
2023/09/27 03:51:00;;;;;;;4.55;3.30;;;;;;;15.77;91.94;101327.72;5050065;28;20068;-60
2023/09/27 03:53:29;;;;;;;5.20;3.00;;;;;;;15.62;92.94;101330.66;5069228;28;20020;-58
2023/09/27 03:55:54;;;;;;;4.18;2.65;;;;;;;15.56;93.17;101326.69;5049080;28;20045;-57
2023/09/27 03:58:20;;;;;;;6.78;3.35;;;;;;;15.65;93.03;101319.81;5049566;28;20078;-59
2023/09/27 04:00:45;;;;;;;4.72;3.08;;;;;;;15.71;92.18;101334.63;5051720;28;20418;-61
2023/09/27 04:03:11;;;;;;;4.63;2.90;;;;;;;15.63;92.18;101324.84;5045523;28;20055;-59
2023/09/27 04:05:36;;;;;;;6.10;2.80;;;;;;;15.54;92.93;101316.22;5053279;28;20171;-54
2023/09/27 04:08:02;;;;;;;6.07;3.05;;;;;;;15.49;92.60;101316.53;5052777;28;20029;-59
2023/09/27 04:10:28;;;;;;;5.15;3.05;;;;;;;15.45;93.05;101313.00;5051050;28;20077;-57
2023/09/27 04:12:54;;;;;;;4.15;2.72;;;;;;;15.44;92.80;101307.94;5056670;28;20039;-63
2023/09/27 04:15:20;;;;;;;4.78;2.75;;;;;;;15.44;93.04;101322.31;5048153;28;20016;-56
2023/09/27 04:17:45;;;;;;;7.30;3.13;;;;;;;15.43;92.97;101312.59;5052444;28;20037;-56
2023/09/27 04:20:16;;;;;;;4.88;2.80;;;;;;;15.47;92.88;101313.41;5049619;28;20037;-57
2023/09/27 04:22:47;;;;;;;4.53;2.93;;;;;;;15.42;92.90;101313.75;5050672;28;20068;-56
2023/09/27 04:25:14;;;;;;;5.15;2.85;;;;;;;15.29;93.38;101324.03;5057922;28;20298;-62
2023/09/27 04:27:41;;;;;;;5.70;3.13;;;;;;;15.29;93.75;101315.88;5055793;28;20098;-57
2023/09/27 04:30:11;;;;;;;2.78;2.28;;;;;;;15.36;93.59;101317.91;5055767;28;20040;-58
2023/09/27 04:32:42;;;;;;;5.72;3.42;;;;;;;15.41;92.85;101331.16;5047579;28;20032;-58
2023/09/27 04:35:10;;;;;;;4.07;3.00;;;;;;;15.40;93.42;101343.16;5056361;28;20041;-59
2023/09/27 04:37:37;;;;;;;4.63;3.15;;;;;;;15.37;93.08;101328.41;5050559;28;20286;-59
2023/09/27 04:40:13;;;;;;;7.95;3.20;;;;;;;15.35;93.21;101341.56;5055766;28;20484;-59
2023/09/27 04:42:40;;;;;;;5.60;3.40;;;;;;;15.34;93.13;101339.22;5046678;28;20041;-59
2023/09/27 04:45:06;;;;;;;4.95;3.35;;;;;;;15.25;93.68;101333.31;5048752;28;20039;-61
2023/09/27 04:47:32;;;;;;;5.20;3.05;;;;;;;15.30;93.41;101325.59;5049610;28;20125;-59
2023/09/27 04:49:58;;;;;;;5.68;3.33;;;;;;;15.38;94.30;101321.81;5053858;28;20492;-60
2023/09/27 04:52:24;;;;;;;6.03;3.55;;;;;;;15.45;93.92;101336.66;5051058;28;20033;-62
2023/09/27 04:54:59;;;;;;;5.50;3.20;;;;;;;15.43;93.74;101328.88;5056393;28;20029;-54
2023/09/27 04:57:25;;;;;;;4.78;3.10;;;;;;;15.42;93.89;101321.91;5052002;28;20535;-58
2023/09/27 04:59:51;;;;;;;5.75;3.42;;;;;;;15.41;94.13;101323.00;5051583;28;20119;-55
2023/09/27 05:02:17;;;;;;;6.93;3.88;;;;;;;15.40;94.40;101321.44;5052055;28;20111;-60
2023/09/27 05:04:42;;;;;;;4.90;2.90;;;;;;;15.36;93.88;101324.13;5049081;28;20550;-60
2023/09/27 05:07:09;;;;;;;7.03;3.33;;;;;;;15.34;94.40;101331.88;5051202;28;20033;-57
2023/09/27 05:09:34;;;;;;;5.78;3.45;;;;;;;15.37;94.29;101330.31;5051731;28;20048;-62
2023/09/27 05:11:59;;;;;;;6.38;3.30;;;;;;;15.32;94.21;101328.72;5056538;28;20081;-57
2023/09/27 05:14:25;;;;;;;5.07;3.20;;;;;;;15.28;94.15;101333.34;5056073;28;20054;-54
2023/09/27 05:16:54;;;;;;;6.25;3.50;;;;;;;15.26;93.72;101338.34;5054014;28;20126;-61
2023/09/27 05:19:19;;;;;;;7.60;3.58;;;;;;;15.23;94.84;101332.88;5050251;28;20563;-56
2023/09/27 05:21:45;;;;;;;5.13;3.45;;;;;;;15.37;95.09;101335.75;5049222;28;20132;-59
2023/09/27 05:24:10;;;;;;;6.55;3.50;;;;;;;15.39;94.56;101341.59;5050501;28;20042;-59
2023/09/27 05:26:35;;;;;;;5.43;3.55;;;;;;;15.46;94.64;101347.16;5052964;28;20021;-59
2023/09/27 05:29:02;;;;;;;6.53;3.20;;;;;;;15.56;93.91;101353.84;5054181;28;20067;-60
2023/09/27 05:31:28;;;;;;;5.78;3.47;;;;;;;15.60;94.42;101362.81;5057934;28;20029;-57
2023/09/27 05:33:53;;;;;;;5.28;3.33;;;;;;;15.62;94.74;101349.66;5054908;28;20383;-58
2023/09/27 05:36:19;;;;;;;6.22;3.70;;;;;;;15.64;94.88;101348.13;5055925;28;20040;-58
2023/09/27 05:38:45;;;;;;;8.27;3.88;;;;;;;15.75;94.54;101349.03;5054993;28;20029;-57
2023/09/27 05:41:10;;;;;;;7.50;3.90;;;;;;;15.76;95.25;101353.28;5053506;28;20138;-57
2023/09/27 05:43:36;;;;;;;5.35;3.20;;;;;;;15.72;95.24;101357.91;5059077;28;20024;-57
2023/09/27 05:46:01;;;;;;;5.97;3.58;;;;;;;15.77;95.28;101359.50;5059472;28;20116;-59
2023/09/27 05:48:26;;;;;;;4.97;3.00;;;;;;;15.75;95.20;101359.09;5048136;28;20024;-54
2023/09/27 05:50:52;;;;;;;6.07;3.63;;;;;;;15.77;95.75;101346.72;5054226;28;20044;-59
2023/09/27 05:53:17;;;;;;;5.45;3.95;;;;;;;15.82;95.76;101340.16;5050207;28;20024;-57
2023/09/27 05:55:44;;;;;;;6.53;3.53;;;;;;;15.86;95.56;101352.63;5050441;28;20027;-59
2023/09/27 05:58:10;;;;;;;6.25;4.05;;;;;;;15.92;96.00;101347.63;5050183;28;20076;-54
2023/09/27 06:00:40;;;;;;;5.45;3.60;;;;;;;16.06;95.58;101350.50;5053244;28;20359;-56
2023/09/27 06:03:07;;;;;;;8.77;4.13;;;;;;;16.09;95.42;101347.81;5055291;28;20029;-53
2023/09/27 06:05:33;;;;;;;7.95;3.80;;;;;;;16.12;95.74;101343.56;5054830;28;20108;-57
2023/09/27 06:08:03;;;;;;;8.55;4.22;;;;;;;16.10;95.65;101354.03;5057517;28;20120;-61
2023/09/27 06:10:29;;;;;;;7.45;4.13;;;;;;;16.11;95.80;101348.22;5049097;28;20040;-62
2023/09/27 06:12:54;;;;;;;7.43;4.18;;;;;;;16.03;96.99;101346.56;5054303;28;20029;-62
2023/09/27 06:15:20;;;;;;;5.80;3.80;;;;;;;16.11;97.43;101342.78;5053016;28;20035;-63
2023/09/27 06:17:45;;;;;;;6.97;3.92;;;;;;;16.20;96.62;101351.38;5051297;28;20108;-51
2023/09/27 06:20:20;;;;;;;7.82;4.03;;;;;;;16.16;97.07;101347.84;5055020;28;20431;-56
2023/09/27 06:22:50;;;;;;;8.60;4.28;;;;;;;16.26;96.76;101352.59;5047581;28;20043;-60
2023/09/27 06:25:17;;;;;;;7.03;4.15;;;;;;;16.34;97.06;101349.97;5054166;28;20042;-60
2023/09/27 06:27:43;;;;;;;7.25;3.85;;;;;;;16.41;96.73;101358.16;5057838;28;20051;-59
2023/09/27 06:30:08;;;;;;;9.07;4.57;;;;;;;16.45;96.67;101350.81;5053916;28;20040;-59
2023/09/27 06:32:35;;;;;;;8.35;4.63;;;;;;;16.47;96.94;101353.94;5054792;28;20060;-54
2023/09/27 06:35:10;;;;;;;10.90;5.05;;;;;;;16.49;96.76;101352.44;5057205;28;20041;-61
2023/09/27 06:37:36;;;;;;;8.05;4.32;;;;;;;16.55;96.34;101336.56;5058241;28;20042;-62
2023/09/27 06:40:07;;;;;;;9.57;5.30;;;;;;;16.55;97.32;101337.31;5055087;28;20029;-60
2023/09/27 06:42:33;;;;;;;7.28;4.55;;;;;;;16.61;97.08;101348.63;5055524;28;20115;-57
2023/09/27 06:44:59;;;;;;;7.88;4.53;;;;;;;16.58;97.25;101352.09;5051610;28;20116;-59
2023/09/27 06:47:24;;;;;;;11.32;5.43;;;;;;;16.61;98.14;101354.84;5049684;28;20025;-56
2023/09/27 06:49:52;;;;;;;8.70;4.75;;;;;;;16.70;97.96;101357.25;5051462;28;20037;-60
2023/09/27 06:52:20;;;;;;;7.95;4.70;;;;;;;16.79;97.92;101354.97;5050285;28;21103;-57
2023/09/27 06:54:45;;;;;;;8.93;4.38;;;;;;;16.82;97.97;101360.44;5053927;28;20059;-60
2023/09/27 06:57:11;;;;;;;7.25;4.68;;;;;;;16.87;97.92;101359.31;5049829;28;20040;-59
2023/09/27 06:59:36;;;;;;;7.82;4.38;;;;;;;16.87;98.29;101356.59;5047210;28;20037;-59
2023/09/27 07:02:02;;;;;;;7.75;4.68;;;;;;;16.93;98.23;101365.94;5050058;28;20033;-59
2023/09/27 07:04:27;;;;;;;7.55;4.40;;;;;;;17.00;97.95;101361.31;5050125;28;20087;-56
2023/09/27 07:06:53;;;;;;;6.68;4.13;;;;;;;16.93;98.70;101365.94;5058666;28;20068;-55
2023/09/27 07:09:20;;;;;;;8.02;4.53;;;;;;;17.01;99.16;101356.66;5050728;28;20407;-62
2023/09/27 07:11:46;;;;;;;6.85;4.10;;;;;;;17.12;98.46;101362.94;5049601;28;20036;-56
2023/09/27 07:14:12;;;;;;;7.97;4.50;;;;;;;17.17;98.42;101366.06;5055108;28;20402;-56
2023/09/27 07:16:38;;;;;;;10.52;4.75;;;;;;;17.24;98.28;101359.09;5050081;28;20036;-55
2023/09/27 07:19:05;;;;;;;6.95;4.20;;;;;;;17.16;99.24;101374.63;5049351;28;20025;-59
2023/09/27 07:21:31;;;;;;;6.57;3.95;;;;;;;17.41;99.60;101380.19;5046789;28;20032;-57
2023/09/27 07:23:56;;;;;;;8.35;4.60;;;;;;;17.66;99.01;101383.81;5054665;28;20035;-55
2023/09/27 07:26:22;;;;;;;9.93;4.30;;;;;;;17.77;96.72;101390.84;5055522;28;20048;-59
2023/09/27 07:28:47;;;;;;;7.35;4.20;;;;;;;17.41;98.32;101386.41;5052274;28;20488;-59
2023/09/27 07:31:17;;;;;;;6.90;3.80;;;;;;;17.59;98.40;101392.75;5053080;28;20120;-59
2023/09/27 07:33:52;;;;;;;6.82;3.58;;;;;;;17.86;98.31;101391.28;5049168;28;20486;-59
2023/09/27 07:36:20;;;;;;;5.20;3.22;;;;;;;18.30;97.32;101401.88;5051565;28;20058;-59
2023/09/27 07:38:47;;;;;;;4.63;2.80;;;;;;;18.81;95.85;101415.16;5050868;28;20475;-57
2023/09/27 07:41:15;;;;;;;6.95;3.20;;;;;;;19.21;93.95;101424.81;5055427;28;20111;-58
2023/09/27 07:43:40;;;;;;;6.78;3.20;;;;;;;19.31;91.36;101419.34;5049623;28;20483;-56
2023/09/27 07:46:06;;;;;;;6.18;3.17;;;;;;;19.45;88.38;101429.47;5052730;28;20043;-56
2023/09/27 07:48:34;;;;;;;5.38;2.92;;;;;;;19.59;88.50;101427.47;5047694;28;20542;-56
2023/09/27 07:51:01;;;;;;;5.82;3.50;;;;;;;19.83;85.92;101425.78;5056709;28;20052;-59
2023/09/27 07:53:26;;;;;;;11.30;3.40;;;;;;;19.76;87.17;101429.31;5051226;28;20068;-62
2023/09/27 07:55:53;;;;;;;4.03;2.88;;;;;;;20.14;85.51;101426.78;5053792;28;20074;-57
2023/09/27 07:58:18;;;;;;;3.35;2.63;;;;;;;20.21;85.88;101438.50;5054525;28;20390;-62
2023/09/27 08:00:44;;;;;;;4.82;2.92;;;;;;;20.61;84.04;101424.09;5045086;28;20029;-57
2023/09/27 08:03:14;;;;;;;4.35;2.58;;;;;;;20.66;81.66;101433.84;5050237;28;20417;-56
2023/09/27 08:05:43;;;;;;;4.55;2.60;;;;;;;20.48;82.16;101438.69;5051100;28;20039;-51
2023/09/27 08:08:10;;;;;;;6.10;2.45;;;;;;;20.68;81.93;101437.75;5053552;28;20047;-59
2023/09/27 08:10:43;;;;;;;4.43;2.60;;;;;;;21.07;80.16;101442.91;5051277;28;20028;-57
2023/09/27 08:13:12;;;;;;;4.25;2.40;;;;;;;21.05;79.61;101448.00;5058440;28;20040;-57
2023/09/27 08:15:39;;;;;;;2.92;2.33;;;;;;;21.47;80.29;101447.56;5048326;28;20155;-56
2023/09/27 08:18:05;;;;;;;3.33;2.03;;;;;;;21.87;79.36;101447.88;5053991;28;20039;-55
2023/09/27 08:20:30;;;;;;;3.15;2.33;;;;;;;22.22;77.71;101444.66;5048813;28;20693;-56
2023/09/27 08:22:56;;;;;;;3.58;2.63;;;;;;;22.30;76.37;101449.59;5057313;28;20396;-57
2023/09/27 08:25:21;;;;;;;2.55;1.83;;;;;;;22.58;75.99;101464.13;5055523;28;20136;-57
2023/09/27 08:27:50;;;;;;;4.15;2.60;;;;;;;22.93;74.39;101469.81;5052720;28;20037;-59
2023/09/27 08:30:17;;;;;;;3.00;2.15;;;;;;;23.13;72.27;101478.88;5047231;28;20029;-61
2023/09/27 08:32:42;;;;;;;3.88;2.33;;;;;;;23.23;71.43;101477.91;5052281;28;20048;-59
2023/09/27 08:35:09;;;;;;;3.08;2.17;;;;;;;23.35;71.01;101473.78;5055814;28;20025;-56
2023/09/27 08:37:34;;;;;;;3.53;2.10;;;;;;;23.55;70.81;101484.81;5047907;28;20049;-57
2023/09/27 08:40:00;;;;;;;6.15;2.25;;;;;;;23.69;70.59;101493.53;5050488;28;20033;-59
2023/09/27 08:42:25;;;;;;;4.35;2.40;;;;;;;23.78;69.69;101490.25;5045609;28;20033;-53
2023/09/27 08:44:52;;;;;;;3.67;2.53;;;;;;;23.77;67.90;101483.94;5057460;28;20065;-56
2023/09/27 08:47:18;;;;;;;4.25;2.35;;;;;;;23.77;70.05;101477.69;5055778;28;20417;-54
2023/09/27 08:49:49;;;;;;;2.90;2.10;;;;;;;24.01;69.10;101481.88;5056081;28;20025;-54
2023/09/27 08:52:20;;;;;;;5.13;2.20;;;;;;;24.23;67.25;101494.03;5060187;28;20394;-58
2023/09/27 08:54:46;;;;;;;2.90;2.00;;;;;;;24.43;65.90;101500.22;5057914;28;20080;-54
2023/09/27 08:57:12;;;;;;;3.70;2.35;;;;;;;24.63;65.89;101500.16;5055830;28;20075;-59
2023/09/27 08:59:38;;;;;;;2.70;1.98;;;;;;;24.88;65.07;101500.38;5049828;28;20051;-58
2023/09/27 09:02:05;;;;;;;2.53;2.03;;;;;;;24.96;64.14;101487.97;5048614;28;20039;-54
2023/09/27 09:04:35;;;;;;;3.97;2.47;;;;;;;24.84;63.09;101486.69;5052822;28;20055;-57
2023/09/27 09:07:02;;;;;;;3.70;2.10;;;;;;;24.87;61.48;101479.53;5056031;28;20037;-54
2023/09/27 09:09:30;;;;;;;2.83;2.17;;;;;;;24.81;62.54;101468.25;5039466;28;20047;-59
2023/09/27 09:11:59;;;;;;;3.50;1.88;;;;;;;25.01;61.58;101451.56;5055387;28;20075;-60
2023/09/27 09:14:49;;;;;;;4.03;2.33;;;;;;;25.31;61.47;101439.34;5048333;28;20045;-60
2023/09/27 09:17:19;;;;;;;3.20;1.80;;;;;;;25.53;61.06;101429.31;5034620;28;20037;-56
2023/09/27 09:20:15;;;;;;;3.80;1.92;;;;;;;25.63;61.14;101428.19;5037367;28;20052;-57
2023/09/27 09:22:44;;;;;;;2.00;1.40;;;;;;;26.28;60.63;101417.56;5031580;28;20036;-62
2023/09/27 09:25:10;;;;;;;3.60;1.90;;;;;;;26.85;57.81;101417.22;5037736;28;20072;-62
2023/09/27 09:27:35;;;;;;;1.70;1.58;;;;;;;27.17;55.38;101416.13;5044823;28;20115;-63
2023/09/27 09:30:06;;;;;;;2.30;1.60;;;;;;;27.42;54.61;101402.19;5042867;28;20098;-59
2023/09/27 09:32:33;;;;;;;2.55;1.63;;;;;;;27.43;53.00;101398.16;5045220;28;20723;-61
2023/09/27 09:34:59;;;;;;;2.33;1.52;;;;;;;27.44;52.98;101383.91;5048959;28;20052;-62
2023/09/27 09:37:29;;;;;;;3.08;1.60;;;;;;;27.22;53.34;101383.09;5040326;28;20033;-59
2023/09/27 09:40:15;;;;;;;2.47;1.43;;;;;;;27.11;54.24;101387.47;5046529;28;20043;-57
2023/09/27 09:42:43;;;;;;;2.63;1.80;;;;;;;26.94;55.39;101373.06;5047326;28;20317;-62
2023/09/27 09:45:12;;;;;;;3.08;1.60;;;;;;;26.81;54.85;101377.88;5049086;28;20735;-64
2023/09/27 09:47:43;;;;;;;2.60;1.52;;;;;;;26.73;54.76;101373.84;5033161;28;20034;-61
2023/09/27 09:50:16;;;;;;;1.63;1.27;;;;;;;26.62;55.10;101370.59;5041162;28;20029;-62
2023/09/27 09:53:04;;;;;;;1.90;1.60;;;;;;;26.55;53.98;101373.63;5045411;28;20040;-55
2023/09/27 09:55:30;;;;;;;3.05;1.20;;;;;;;26.58;54.94;101369.97;5044489;28;20029;-61
2023/09/27 09:58:05;;;;;;;2.00;1.33;;;;;;;26.38;53.03;101375.78;5049568;28;20032;-65
2023/09/27 10:00:35;;;;;;;3.78;1.75;;;;;;;26.51;54.64;101378.50;5044377;28;20033;-59
2023/09/27 10:03:04;;;;;;;3.08;2.10;;;;;;;26.60;53.38;101384.09;5045907;28;20037;-58
2023/09/27 10:05:50;;;;;;;2.53;1.42;;;;;;;26.58;53.27;101392.84;5035066;28;20075;-57
2023/09/27 10:08:19;;;;;;;4.38;1.63;;;;;;;26.67;53.49;101401.22;5046508;28;20512;-57
2023/09/27 10:10:45;;;;;;;3.22;1.48;;;;;;;26.70;52.58;101394.84;5046390;28;20021;-60
2023/09/27 10:13:13;;;;;;;2.17;1.42;;;;;;;26.70;52.14;101403.13;5050228;28;20036;-57
2023/09/27 10:15:40;;;;;;;2.58;1.60;;;;;;;26.70;51.66;101400.38;5048542;28;20047;-59
2023/09/27 10:18:21;;;;;;;3.20;1.90;;;;;;;26.64;51.56;101407.66;5046982;28;20043;-59
2023/09/27 10:21:05;;;;;;;5.47;1.88;;;;;;;26.31;51.56;101400.09;5031832;28;20033;-62
2023/09/27 10:23:46;;;;;;;2.45;1.60;;;;;;;26.51;53.75;101395.88;5049821;28;20064;-55
2023/09/27 10:26:34;;;;;;;2.20;1.55;;;;;;;26.52;52.45;101408.44;5051449;28;20036;-53
2023/09/27 10:29:03;;;;;;;1.80;1.30;;;;;;;26.66;51.99;101410.75;5044766;28;20029;-57
2023/09/27 10:31:39;;;;;;;2.28;1.60;;;;;;;26.67;51.52;101414.28;5046691;28;20541;-55
2023/09/27 10:34:27;;;;;;;1.85;1.05;;;;;;;26.51;51.68;101419.97;5046567;28;20029;-62
2023/09/27 10:36:54;;;;;;;2.10;1.40;;;;;;;26.45;51.52;101419.75;5041183;28;20464;-57
2023/09/27 10:39:20;;;;;;;1.83;1.50;;;;;;;26.15;52.06;101417.56;5044487;28;20034;-61
2023/09/27 10:41:47;;;;;;;1.83;1.40;;;;;;;25.79;53.32;101415.09;5043472;28;20410;-56
2023/09/27 10:44:33;;;;;;;1.55;1.27;;;;;;;25.73;53.82;101413.31;5039228;28;20029;-57
2023/09/27 10:47:03;;;;;;;2.22;1.70;;;;;;;25.84;53.98;101413.78;5040871;28;20503;-58
2023/09/27 10:49:37;;;;;;;1.70;1.30;;;;;;;26.02;54.13;101411.25;5036266;28;20033;-57
2023/09/27 10:52:03;;;;;;;1.60;1.40;;;;;;;25.99;53.03;101412.13;5052639;28;20056;-55
2023/09/27 10:54:29;;;;;;;3.85;1.77;;;;;;;26.28;53.61;101417.56;5054718;28;20040;-63
2023/09/27 10:56:56;;;;;;;3.53;1.35;;;;;;;26.33;53.74;101414.22;5050386;28;20415;-59
2023/09/27 10:59:26;;;;;;;1.85;1.30;;;;;;;26.44;53.77;101420.19;5038962;28;20406;-60
2023/09/27 11:01:52;;;;;;;2.07;1.40;;;;;;;26.24;53.67;101403.88;5040626;28;20043;-59
2023/09/27 11:04:21;;;;;;;5.13;1.52;;;;;;;26.22;54.12;101398.00;5045126;28;20029;-63
2023/09/27 11:06:46;;;;;;;2.72;1.70;;;;;;;26.06;53.70;101391.81;5050011;28;20048;-58
2023/09/27 11:09:12;;;;;;;2.13;1.52;;;;;;;25.81;53.36;101395.34;5050347;28;20487;-59
2023/09/27 11:11:39;;;;;;;2.13;1.40;;;;;;;25.80;55.83;101397.31;5046487;28;20044;-62
2023/09/27 11:14:04;;;;;;;2.15;1.33;;;;;;;25.77;55.79;101389.16;5044660;28;20509;-59
2023/09/27 11:16:30;;;;;;;2.42;1.48;;;;;;;25.69;56.24;101385.03;5051998;28;20103;-60
2023/09/27 11:18:58;;;;;;;1.65;1.30;;;;;;;25.60;55.35;101371.91;5052940;28;20691;-57
2023/09/27 11:21:28;;;;;;;2.22;1.50;;;;;;;25.73;55.55;101377.44;5051071;28;20041;-61
2023/09/27 11:23:54;;;;;;;4.28;2.20;;;;;;;25.72;54.79;101373.91;5047999;28;20483;-58
2023/09/27 11:26:21;;;;;;;2.22;1.67;;;;;;;25.76;56.02;101371.78;5052356;28;20495;-56